^^
Station Historical Data
Daily Summary for August 15, 2017 Units:  Both    English   Metric
« Previous Day
Next Day »
Daily Weekly Monthly Yearly Custom
  High: Low: Average:
Temperature: 79.0 °F /  26.1 °C 47.3 °F /  8.5 °C 61.7 °F /  16.5 °C
Dew Point: 26.1 °F /  -3.3 °C 16.5 °F /  -8.6 °C 20.8 °F /  -6.2 °C
Humidity: 38% 11% 22%
Wind Speed: 6.9mph /  11.1km/h - 0.7mph /  1.1km/h
Wind Gust: 11.0mph /  17.7km/h - -
Wind- - SW
Pressure: 30.34 in /  1027.3 hPa 30.18 in /  1021.9 hPa -
Precipitation: 0.00 in /  0 mm    
Historical Graphs
 
 
Tabular Data for August 15, 2017
Time Temperature Dew Point Pressure Wind Wind Speed Wind Gust Humidity Rainfall Rate (Hourly) solar Conditions
00:00 52.3 °F /  11.3 °C 18.5 °F /  -7.5 °C 30.32in /  1026.6hPa NNW 0.9mph /  1.4km/h 2.0mph /  3.2km/h 26% 0.00in /  0mm 0.0 W/m2
00:07 52.5 °F /  11.4 °C 17.8 °F /  -7.9 °C 30.32in /  1026.6hPa Calm   4.0mph /  6.4km/h 25% 0.00in /  0mm 0.0 W/m2
00:13 53.2 °F /  11.8 °C 18.3 °F /  -7.6 °C 30.32in /  1026.6hPa Calm   3.0mph /  4.8km/h 25% 0.00in /  0mm 0.0 W/m2
00:19 54.0 °F /  12.2 °C 18.0 °F /  -7.8 °C 30.32in /  1026.6hPa Calm   1.0mph /  1.6km/h 24% 0.00in /  0mm 0.0 W/m2
00:25 54.1 °F /  12.3 °C 18.1 °F /  -7.7 °C 30.32in /  1026.6hPa Calm     24% 0.00in /  0mm 0.0 W/m2
00:31 54.1 °F /  12.3 °C 18.1 °F /  -7.7 °C 30.31in /  1026.3hPa Calm     24% 0.00in /  0mm 0.0 W/m2
00:37 54.0 °F /  12.2 °C 18.0 °F /  -7.8 °C 30.31in /  1026.3hPa Calm     24% 0.00in /  0mm 0.0 W/m2
00:43 53.8 °F /  12.1 °C 17.8 °F /  -7.9 °C 30.31in /  1026.3hPa Calm     24% 0.00in /  0mm 0.0 W/m2
00:49 53.2 °F /  11.8 °C 18.3 °F /  -7.6 °C 30.31in /  1026.3hPa Calm   1.0mph /  1.6km/h 25% 0.00in /  0mm 0.0 W/m2
00:56 53.1 °F /  11.7 °C 18.1 °F /  -7.7 °C 30.31in /  1026.3hPa Calm     25% 0.00in /  0mm 0.0 W/m2
01:02 52.7 °F /  11.5 °C 18.7 °F /  -7.4 °C 30.31in /  1026.3hPa Calm     26% 0.00in /  0mm 0.0 W/m2
01:08 52.3 °F /  11.3 °C 18.5 °F /  -7.5 °C 30.31in /  1026.3hPa Calm   1.0mph /  1.6km/h 26% 0.00in /  0mm 0.0 W/m2
01:14 52.0 °F /  11.1 °C 19.0 °F /  -7.2 °C 30.31in /  1026.3hPa Calm     27% 0.00in /  0mm 0.0 W/m2
01:20 51.6 °F /  10.9 °C 18.7 °F /  -7.4 °C 30.31in /  1026.3hPa Calm   3.0mph /  4.8km/h 27% 0.00in /  0mm 0.0 W/m2
01:26 51.6 °F /  10.9 °C 18.7 °F /  -7.4 °C 30.31in /  1026.3hPa Calm     27% 0.00in /  0mm 0.0 W/m2
01:33 51.4 °F /  10.8 °C 18.5 °F /  -7.5 °C 30.31in /  1026.3hPa Calm     27% 0.00in /  0mm 0.0 W/m2
01:39 51.3 °F /  10.7 °C 18.3 °F /  -7.6 °C 30.31in /  1026.3hPa Calm     27% 0.00in /  0mm 0.0 W/m2
01:45 51.1 °F /  10.6 °C 18.3 °F /  -7.6 °C 30.31in /  1026.3hPa Calm   3.0mph /  4.8km/h 27% 0.00in /  0mm 0.0 W/m2
01:51 51.1 °F /  10.6 °C 18.3 °F /  -7.6 °C 30.31in /  1026.3hPa ENE 2.9mph /  4.7km/h 3.0mph /  4.8km/h 27% 0.00in /  0mm 0.0 W/m2
01:57 51.1 °F /  10.6 °C 18.3 °F /  -7.6 °C 30.31in /  1026.3hPa Calm   2.0mph /  3.2km/h 27% 0.00in /  0mm 0.0 W/m2
02:03 51.3 °F /  10.7 °C 18.3 °F /  -7.6 °C 30.31in /  1026.3hPa Calm   2.0mph /  3.2km/h 27% 0.00in /  0mm 0.0 W/m2
02:09 51.3 °F /  10.7 °C 19.2 °F /  -7.1 °C 30.31in /  1026.3hPa ENE 0.9mph /  1.4km/h 2.0mph /  3.2km/h 28% 0.00in /  0mm 0.0 W/m2
02:16 51.3 °F /  10.7 °C 19.2 °F /  -7.1 °C 30.31in /  1026.3hPa East 0.9mph /  1.4km/h 2.0mph /  3.2km/h 28% 0.00in /  0mm 0.0 W/m2
02:22 51.1 °F /  10.6 °C 19.0 °F /  -7.2 °C 30.31in /  1026.3hPa Calm   2.0mph /  3.2km/h 28% 0.00in /  0mm 0.0 W/m2
02:28 50.7 °F /  10.4 °C 19.6 °F /  -6.9 °C 30.30in /  1026hPa Calm   1.0mph /  1.6km/h 29% 0.00in /  0mm 0.0 W/m2
02:34 50.9 °F /  10.5 °C 19.8 °F /  -6.8 °C 30.30in /  1026hPa ENE 2.0mph /  3.2km/h 5.0mph /  8km/h 29% 0.00in /  0mm 0.0 W/m2
02:40 51.1 °F /  10.6 °C 19.9 °F /  -6.7 °C 30.30in /  1026hPa Calm   2.0mph /  3.2km/h 29% 0.00in /  0mm 0.0 W/m2
02:46 51.3 °F /  10.7 °C 20.1 °F /  -6.6 °C 30.30in /  1026hPa Calm   4.0mph /  6.4km/h 29% 0.00in /  0mm 0.0 W/m2
02:53 51.3 °F /  10.7 °C 20.1 °F /  -6.6 °C 30.30in /  1026hPa ENE 2.9mph /  4.7km/h 3.0mph /  4.8km/h 29% 0.00in /  0mm 0.0 W/m2
02:59 51.3 °F /  10.7 °C 20.8 °F /  -6.2 °C 30.30in /  1026hPa Calm   1.0mph /  1.6km/h 30% 0.00in /  0mm 0.0 W/m2
03:05 51.1 °F /  10.6 °C 20.7 °F /  -6.3 °C 30.30in /  1026hPa Calm     30% 0.00in /  0mm 0.0 W/m2
03:11 50.9 °F /  10.5 °C 20.5 °F /  -6.4 °C 30.30in /  1026hPa Calm     30% 0.00in /  0mm 0.0 W/m2
03:17 50.5 °F /  10.3 °C 21.7 °F /  -5.7 °C 30.30in /  1026hPa Calm     32% 0.00in /  0mm 0.0 W/m2
03:23 50.2 °F /  10.1 °C 21.4 °F /  -5.9 °C 30.30in /  1026hPa Calm   1.0mph /  1.6km/h 32% 0.00in /  0mm 0.0 W/m2
03:29 50.0 °F /  10 °C 21.4 °F /  -5.9 °C 30.30in /  1026hPa Calm   3.0mph /  4.8km/h 32% 0.00in /  0mm 0.0 W/m2
03:35 49.8 °F /  9.9 °C 21.2 °F /  -6 °C 30.30in /  1026hPa Calm   1.0mph /  1.6km/h 32% 0.00in /  0mm 0.0 W/m2
03:41 49.8 °F /  9.9 °C 21.2 °F /  -6 °C 30.30in /  1026hPa Calm   3.0mph /  4.8km/h 32% 0.00in /  0mm 0.0 W/m2
03:48 50.0 °F /  10 °C 21.4 °F /  -5.9 °C 30.30in /  1026hPa Calm   2.0mph /  3.2km/h 32% 0.00in /  0mm 0.0 W/m2
03:54 50.2 °F /  10.1 °C 21.4 °F /  -5.9 °C 30.30in /  1026hPa ENE 0.9mph /  1.4km/h 5.0mph /  8km/h 32% 0.00in /  0mm 0.0 W/m2
04:00 50.4 °F /  10.2 °C 21.6 °F /  -5.8 °C 30.30in /  1026hPa ENE 2.9mph /  4.7km/h 3.0mph /  4.8km/h 32% 0.00in /  0mm 0.0 W/m2
04:06 50.5 °F /  10.3 °C 21.7 °F /  -5.7 °C 30.29in /  1025.6hPa East 2.0mph /  3.2km/h 4.0mph /  6.4km/h 32% 0.00in /  0mm 0.0 W/m2
04:14 50.5 °F /  10.3 °C 21.0 °F /  -6.1 °C 30.29in /  1025.6hPa Calm   5.0mph /  8km/h 31% 0.00in /  0mm 0.0 W/m2
04:20 50.4 °F /  10.2 °C 21.6 °F /  -5.8 °C 30.29in /  1025.6hPa East 4.0mph /  6.4km/h 4.0mph /  6.4km/h 32% 0.00in /  0mm 0.0 W/m2
04:26 50.2 °F /  10.1 °C 21.4 °F /  -5.9 °C 30.28in /  1025.3hPa East 0.9mph /  1.4km/h 6.0mph /  9.7km/h 32% 0.00in /  0mm 0.0 W/m2
04:32 49.8 °F /  9.9 °C 21.2 °F /  -6 °C 30.29in /  1025.6hPa Calm   4.0mph /  6.4km/h 32% 0.00in /  0mm 0.0 W/m2
04:42 49.5 °F /  9.7 °C 21.6 °F /  -5.8 °C 30.29in /  1025.6hPa Calm   5.0mph /  8km/h 33% 0.00in /  0mm 0.0 W/m2
04:47 49.3 °F /  9.6 °C 21.4 °F /  -5.9 °C 30.29in /  1025.6hPa Calm   5.0mph /  8km/h 33% 0.00in /  0mm 0.0 W/m2
04:53 48.9 °F /  9.4 °C 21.7 °F /  -5.7 °C 30.29in /  1025.6hPa Calm   2.0mph /  3.2km/h 34% 0.00in /  0mm 0.0 W/m2
04:59 48.7 °F /  9.3 °C 22.3 °F /  -5.4 °C 30.29in /  1025.6hPa Calm     35% 0.00in /  0mm 0.0 W/m2
05:05 48.6 °F /  9.2 °C 22.1 °F /  -5.5 °C 30.29in /  1025.6hPa Calm     35% 0.00in /  0mm 0.0 W/m2
05:11 48.4 °F /  9.1 °C 21.9 °F /  -5.6 °C 30.30in /  1026hPa Calm   1.0mph /  1.6km/h 35% 0.00in /  0mm 0.0 W/m2
05:15 48.4 °F /  9.1 °C 21.9 °F /  -5.6 °C 30.30in /  1026hPa Calm   3.0mph /  4.8km/h 35% 0.00in /  0mm 0.0 W/m2
05:21 48.2 °F /  9 °C 21.7 °F /  -5.7 °C 30.30in /  1026hPa Calm     35% 0.00in /  0mm 0.0 W/m2
05:28 48.0 °F /  8.9 °C 21.7 °F /  -5.7 °C 30.30in /  1026hPa Calm   3.0mph /  4.8km/h 35% 0.00in /  0mm 0.0 W/m2
05:34 48.0 °F /  8.9 °C 22.3 °F /  -5.4 °C 30.30in /  1026hPa Calm   1.0mph /  1.6km/h 36% 0.00in /  0mm 0.0 W/m2
05:40 47.8 °F /  8.8 °C 22.1 °F /  -5.5 °C 30.30in /  1026hPa Calm     36% 0.00in /  0mm 0.0 W/m2
05:46 47.7 °F /  8.7 °C 22.1 °F /  -5.5 °C 30.30in /  1026hPa Calm     36% 0.00in /  0mm 0.0 W/m2
05:52 47.7 °F /  8.7 °C 22.1 °F /  -5.5 °C 30.31in /  1026.3hPa Calm   1.0mph /  1.6km/h 36% 0.00in /  0mm 0.0 W/m2
06:00 47.5 °F /  8.6 °C 21.9 °F /  -5.6 °C 30.31in /  1026.3hPa Calm   2.0mph /  3.2km/h 36% 0.00in /  0mm 0.0 W/m2
06:06 47.3 °F /  8.5 °C 22.3 °F /  -5.4 °C 30.31in /  1026.3hPa Calm     37% 0.00in /  0mm 0.0 W/m2
06:13 47.3 °F /  8.5 °C 22.3 °F /  -5.4 °C 30.31in /  1026.3hPa Calm     37% 0.00in /  0mm 0.0 W/m2
06:19 47.3 °F /  8.5 °C 22.3 °F /  -5.4 °C 30.31in /  1026.3hPa Calm   1.0mph /  1.6km/h 37% 0.00in /  0mm 0.0 W/m2
06:25 47.3 °F /  8.5 °C 22.3 °F /  -5.4 °C 30.31in /  1026.3hPa Calm   1.0mph /  1.6km/h 37% 0.00in /  0mm 7.0 W/m2
06:31 47.5 °F /  8.6 °C 22.5 °F /  -5.3 °C 30.31in /  1026.3hPa Calm   1.0mph /  1.6km/h 37% 0.00in /  0mm 11.0 W/m2
06:37 47.5 °F /  8.6 °C 22.5 °F /  -5.3 °C 30.32in /  1026.6hPa Calm   1.0mph /  1.6km/h 37% 0.00in /  0mm 12.0 W/m2
06:43 47.5 °F /  8.6 °C 22.5 °F /  -5.3 °C 30.32in /  1026.6hPa Calm     37% 0.00in /  0mm 14.0 W/m2
06:49 47.5 °F /  8.6 °C 23.2 °F /  -4.9 °C 30.32in /  1026.6hPa Calm   1.0mph /  1.6km/h 38% 0.00in /  0mm 16.0 W/m2
06:55 47.5 °F /  8.6 °C 23.2 °F /  -4.9 °C 30.32in /  1026.6hPa Calm     38% 0.00in /  0mm 18.0 W/m2
07:01 47.7 °F /  8.7 °C 23.4 °F /  -4.8 °C 30.32in /  1026.6hPa Calm   1.0mph /  1.6km/h 38% 0.00in /  0mm 19.0 W/m2
07:07 47.8 °F /  8.8 °C 23.5 °F /  -4.7 °C 30.33in /  1027hPa Calm   1.0mph /  1.6km/h 38% 0.00in /  0mm 19.0 W/m2
07:13 48.0 °F /  8.9 °C 23.5 °F /  -4.7 °C 30.33in /  1027hPa Calm   1.0mph /  1.6km/h 38% 0.00in /  0mm 21.0 W/m2
07:20 48.6 °F /  9.2 °C 24.1 °F /  -4.4 °C 30.33in /  1027hPa Calm   1.0mph /  1.6km/h 38% 0.00in /  0mm 23.0 W/m2
07:26 49.3 °F /  9.6 °C 24.8 °F /  -4 °C 30.33in /  1027hPa Calm     38% 0.00in /  0mm 25.0 W/m2
07:32 49.8 °F /  9.9 °C 25.2 °F /  -3.8 °C 30.33in /  1027hPa Calm     38% 0.00in /  0mm 25.0 W/m2
07:38 50.5 °F /  10.3 °C 25.2 °F /  -3.8 °C 30.33in /  1027hPa Calm     37% 0.00in /  0mm 26.0 W/m2
07:44 51.3 °F /  10.7 °C 25.2 °F /  -3.8 °C 30.33in /  1027hPa Calm   1.0mph /  1.6km/h 36% 0.00in /  0mm 26.0 W/m2
07:50 52.3 °F /  11.3 °C 25.5 °F /  -3.6 °C 30.33in /  1027hPa Calm     35% 0.00in /  0mm 28.0 W/m2
07:56 53.4 °F /  11.9 °C 25.0 °F /  -3.9 °C 30.33in /  1027hPa Calm     33% 0.00in /  0mm 30.0 W/m2
08:02 54.7 °F /  12.6 °C 24.6 °F /  -4.1 °C 30.34in /  1027.3hPa Calm   1.0mph /  1.6km/h 31% 0.00in /  0mm 30.0 W/m2
08:08 56.1 °F /  13.4 °C 25.2 °F /  -3.8 °C 30.34in /  1027.3hPa Calm   3.0mph /  4.8km/h 30% 0.00in /  0mm 32.0 W/m2
08:15 57.7 °F /  14.3 °C 25.7 °F /  -3.5 °C 30.34in /  1027.3hPa Calm   1.0mph /  1.6km/h 29% 0.00in /  0mm 33.0 W/m2
08:21 58.8 °F /  14.9 °C 24.1 °F /  -4.4 °C 30.34in /  1027.3hPa Calm     26% 0.00in /  0mm 33.0 W/m2
08:27 59.7 °F /  15.4 °C 24.8 °F /  -4 °C 30.34in /  1027.3hPa Calm     26% 0.00in /  0mm 37.0 W/m2
08:33 60.8 °F /  16 °C 23.7 °F /  -4.6 °C 30.34in /  1027.3hPa Calm   2.0mph /  3.2km/h 24% 0.00in /  0mm 455.0 W/m2
08:39 62.4 °F /  16.9 °C 24.1 °F /  -4.4 °C 30.34in /  1027.3hPa Calm     23% 0.00in /  0mm 476.0 W/m2
08:45 63.9 °F /  17.7 °C 24.3 °F /  -4.3 °C 30.34in /  1027.3hPa Calm   1.0mph /  1.6km/h 22% 0.00in /  0mm 496.0 W/m2
08:51 65.5 °F /  18.6 °C 25.7 °F /  -3.5 °C 30.34in /  1027.3hPa NNE 0.9mph /  1.4km/h 4.0mph /  6.4km/h 22% 0.00in /  0mm 517.0 W/m2
08:57 66.6 °F /  19.2 °C 24.3 °F /  -4.3 °C 30.34in /  1027.3hPa Calm   1.0mph /  1.6km/h 20% 0.00in /  0mm 536.0 W/m2
09:03 67.5 °F /  19.7 °C 25.0 °F /  -3.9 °C 30.34in /  1027.3hPa Calm   2.0mph /  3.2km/h 20% 0.00in /  0mm 554.0 W/m2
09:10 68.5 °F /  20.3 °C 24.6 °F /  -4.1 °C 30.33in /  1027hPa Calm   4.0mph /  6.4km/h 19% 0.00in /  0mm 571.0 W/m2
09:16 69.3 °F /  20.7 °C 25.2 °F /  -3.8 °C 30.34in /  1027.3hPa Calm   2.0mph /  3.2km/h 19% 0.00in /  0mm 587.0 W/m2
09:22 69.4 °F /  20.8 °C 25.3 °F /  -3.7 °C 30.33in /  1027hPa Calm     19% 0.00in /  0mm 605.0 W/m2
09:28 70.0 °F /  21.1 °C 24.4 °F /  -4.2 °C 30.33in /  1027hPa North 0.9mph /  1.4km/h 3.0mph /  4.8km/h 18% 0.00in /  0mm 621.0 W/m2
09:34 70.5 °F /  21.4 °C 25.0 °F /  -3.9 °C 30.33in /  1027hPa WNW 2.0mph /  3.2km/h 6.0mph /  9.7km/h 18% 0.00in /  0mm 635.0 W/m2
09:40 71.1 °F /  21.7 °C 25.3 °F /  -3.7 °C 30.33in /  1027hPa Calm   6.0mph /  9.7km/h 18% 0.00in /  0mm 650.0 W/m2
09:46 71.4 °F /  21.9 °C 25.7 °F /  -3.5 °C 30.33in /  1027hPa North 2.0mph /  3.2km/h 2.0mph /  3.2km/h 18% 0.00in /  0mm 664.0 W/m2
09:52 72.0 °F /  22.2 °C 24.8 °F /  -4 °C 30.32in /  1026.6hPa NNW 0.9mph /  1.4km/h 3.0mph /  4.8km/h 17% 0.00in /  0mm 675.0 W/m2
09:58 72.3 °F /  22.4 °C 25.0 °F /  -3.9 °C 30.32in /  1026.6hPa Calm   2.0mph /  3.2km/h 17% 0.00in /  0mm 686.0 W/m2
10:05 72.7 °F /  22.6 °C 25.3 °F /  -3.7 °C 30.32in /  1026.6hPa Calm   5.0mph /  8km/h 17% 0.00in /  0mm 698.0 W/m2
10:11 72.5 °F /  22.5 °C 25.2 °F /  -3.8 °C 30.31in /  1026.3hPa Calm   4.0mph /  6.4km/h 17% 0.00in /  0mm 710.0 W/m2
10:17 72.9 °F /  22.7 °C 25.5 °F /  -3.6 °C 30.31in /  1026.3hPa North 2.9mph /  4.7km/h 6.0mph /  9.7km/h 17% 0.00in /  0mm 728.0 W/m2
10:23 73.6 °F /  23.1 °C 26.1 °F /  -3.3 °C 30.31in /  1026.3hPa NNW 6.9mph /  11.1km/h 7.0mph /  11.3km/h 17% 0.00in /  0mm 735.0 W/m2
10:29 73.8 °F /  23.2 °C 24.8 °F /  -4 °C 30.30in /  1026hPa West 0.9mph /  1.4km/h 5.0mph /  8km/h 16% 0.00in /  0mm 735.0 W/m2
10:35 73.9 °F /  23.3 °C 25.0 °F /  -3.9 °C 30.30in /  1026hPa Calm   7.0mph /  11.3km/h 16% 0.00in /  0mm 751.0 W/m2
10:41 74.3 °F /  23.5 °C 25.2 °F /  -3.8 °C 30.30in /  1026hPa Calm   6.0mph /  9.7km/h 16% 0.00in /  0mm 763.0 W/m2
10:47 74.8 °F /  23.8 °C 24.1 °F /  -4.4 °C 30.29in /  1025.6hPa Calm   3.0mph /  4.8km/h 15% 0.00in /  0mm 770.0 W/m2
10:54 74.8 °F /  23.8 °C 24.1 °F /  -4.4 °C 30.29in /  1025.6hPa NNW 0.9mph /  1.4km/h 7.0mph /  11.3km/h 15% 0.00in /  0mm 782.0 W/m2
11:00 75.0 °F /  23.9 °C 22.6 °F /  -5.2 °C 30.29in /  1025.6hPa NNW 2.0mph /  3.2km/h 4.0mph /  6.4km/h 14% 0.00in /  0mm 772.0 W/m2
11:06 75.0 °F /  23.9 °C 24.3 °F /  -4.3 °C 30.29in /  1025.6hPa WNW 2.0mph /  3.2km/h 4.0mph /  6.4km/h 15% 0.00in /  0mm 789.0 W/m2
11:12 75.4 °F /  24.1 °C 22.8 °F /  -5.1 °C 30.29in /  1025.6hPa NW 2.9mph /  4.7km/h 5.0mph /  8km/h 14% 0.00in /  0mm 798.0 W/m2
11:18 75.7 °F /  24.3 °C 23.2 °F /  -4.9 °C 30.29in /  1025.6hPa Calm   2.0mph /  3.2km/h 14% 0.00in /  0mm 802.0 W/m2
11:24 75.7 °F /  24.3 °C 23.2 °F /  -4.9 °C 30.28in /  1025.3hPa NNW 2.0mph /  3.2km/h 6.0mph /  9.7km/h 14% 0.00in /  0mm 803.0 W/m2
11:30 75.7 °F /  24.3 °C 23.2 °F /  -4.9 °C 30.28in /  1025.3hPa West 0.9mph /  1.4km/h 5.0mph /  8km/h 14% 0.00in /  0mm 809.0 W/m2
11:36 75.6 °F /  24.2 °C 23.0 °F /  -5 °C 30.28in /  1025.3hPa Calm   2.0mph /  3.2km/h 14% 0.00in /  0mm 803.0 W/m2
11:42 75.7 °F /  24.3 °C 23.2 °F /  -4.9 °C 30.28in /  1025.3hPa Calm   2.0mph /  3.2km/h 14% 0.00in /  0mm 800.0 W/m2
11:49 76.3 °F /  24.6 °C 21.7 °F /  -5.7 °C 30.27in /  1024.9hPa Calm   6.0mph /  9.7km/h 13% 0.00in /  0mm 807.0 W/m2
11:55 76.3 °F /  24.6 °C 21.7 °F /  -5.7 °C 30.27in /  1024.9hPa NNW 0.9mph /  1.4km/h 5.0mph /  8km/h 13% 0.00in /  0mm 802.0 W/m2
12:01 75.7 °F /  24.3 °C 23.2 °F /  -4.9 °C 30.27in /  1024.9hPa West 2.9mph /  4.7km/h 3.0mph /  4.8km/h 14% 0.00in /  0mm 809.0 W/m2
12:07 75.6 °F /  24.2 °C 23.0 °F /  -5 °C 30.27in /  1024.9hPa NNW 4.0mph /  6.4km/h 9.0mph /  14.5km/h 14% 0.00in /  0mm 805.0 W/m2
12:13 76.3 °F /  24.6 °C 23.5 °F /  -4.7 °C 30.26in /  1024.6hPa NNW 0.9mph /  1.4km/h 6.0mph /  9.7km/h 14% 0.00in /  0mm 800.0 W/m2
12:19 76.5 °F /  24.7 °C 23.7 °F /  -4.6 °C 30.25in /  1024.3hPa WNW 4.0mph /  6.4km/h 11.0mph /  17.7km/h 14% 0.00in /  0mm 795.0 W/m2
12:25 76.5 °F /  24.7 °C 21.9 °F /  -5.6 °C 30.25in /  1024.3hPa NNW 2.0mph /  3.2km/h 8.0mph /  12.9km/h 13% 0.00in /  0mm 793.0 W/m2
12:31 76.8 °F /  24.9 °C 24.1 °F /  -4.4 °C 30.25in /  1024.3hPa WSW 2.0mph /  3.2km/h 6.0mph /  9.7km/h 14% 0.00in /  0mm 786.0 W/m2
12:37 77.2 °F /  25.1 °C 24.3 °F /  -4.3 °C 30.25in /  1024.3hPa North 4.0mph /  6.4km/h 5.0mph /  8km/h 14% 0.00in /  0mm 780.0 W/m2
12:44 77.4 °F /  25.2 °C 22.6 °F /  -5.2 °C 30.24in /  1023.9hPa NNE 2.0mph /  3.2km/h 7.0mph /  11.3km/h 13% 0.00in /  0mm 777.0 W/m2
12:50 77.2 °F /  25.1 °C 22.5 °F /  -5.3 °C 30.24in /  1023.9hPa Calm   2.0mph /  3.2km/h 13% 0.00in /  0mm 766.0 W/m2
12:57 76.8 °F /  24.9 °C 22.3 °F /  -5.4 °C 30.24in /  1023.9hPa SW 0.9mph /  1.4km/h 3.0mph /  4.8km/h 13% 0.00in /  0mm 759.0 W/m2
13:02 76.8 °F /  24.9 °C 22.3 °F /  -5.4 °C 30.23in /  1023.6hPa West 2.0mph /  3.2km/h 8.0mph /  12.9km/h 13% 0.00in /  0mm 756.0 W/m2
13:08 77.5 °F /  25.3 °C 22.8 °F /  -5.1 °C 30.23in /  1023.6hPa West 4.9mph /  7.9km/h 5.0mph /  8km/h 13% 0.00in /  0mm 751.0 W/m2
13:14 78.1 °F /  25.6 °C 21.4 °F /  -5.9 °C 30.22in /  1023.2hPa Calm   3.0mph /  4.8km/h 12% 0.00in /  0mm 740.0 W/m2
13:20 78.1 °F /  25.6 °C 21.4 °F /  -5.9 °C 30.22in /  1023.2hPa Calm   2.0mph /  3.2km/h 12% 0.00in /  0mm 735.0 W/m2
13:26 78.3 °F /  25.7 °C 21.6 °F /  -5.8 °C 30.22in /  1023.2hPa WNW 2.0mph /  3.2km/h 7.0mph /  11.3km/h 12% 0.00in /  0mm 721.0 W/m2
13:32 78.4 °F /  25.8 °C 21.6 °F /  -5.8 °C 30.22in /  1023.2hPa West 0.9mph /  1.4km/h 2.0mph /  3.2km/h 12% 0.00in /  0mm 708.0 W/m2
13:38 78.4 °F /  25.8 °C 19.6 °F /  -6.9 °C 30.22in /  1023.2hPa West 2.0mph /  3.2km/h 7.0mph /  11.3km/h 11% 0.00in /  0mm 698.0 W/m2
13:44 78.1 °F /  25.6 °C 21.4 °F /  -5.9 °C 30.21in /  1022.9hPa WNW 0.9mph /  1.4km/h 8.0mph /  12.9km/h 12% 0.00in /  0mm 684.0 W/m2
13:50 78.1 °F /  25.6 °C 21.4 °F /  -5.9 °C 30.21in /  1022.9hPa NW 4.9mph /  7.9km/h 7.0mph /  11.3km/h 12% 0.00in /  0mm 677.0 W/m2
13:57 78.4 °F /  25.8 °C 19.6 °F /  -6.9 °C 30.20in /  1022.6hPa West 0.9mph /  1.4km/h 8.0mph /  12.9km/h 11% 0.00in /  0mm 661.0 W/m2
14:02 78.3 °F /  25.7 °C 19.4 °F /  -7 °C 30.20in /  1022.6hPa NNW 2.9mph /  4.7km/h 5.0mph /  8km/h 11% 0.00in /  0mm 645.0 W/m2
14:08 78.4 °F /  25.8 °C 19.6 °F /  -6.9 °C 30.20in /  1022.6hPa NNE 0.9mph /  1.4km/h 1.0mph /  1.6km/h 11% 0.00in /  0mm 631.0 W/m2
14:14 78.6 °F /  25.9 °C 19.8 °F /  -6.8 °C 30.20in /  1022.6hPa Calm   3.0mph /  4.8km/h 11% 0.00in /  0mm 621.0 W/m2
14:21 78.3 °F /  25.7 °C 19.4 °F /  -7 °C 30.20in /  1022.6hPa Calm   5.0mph /  8km/h 11% 0.00in /  0mm 599.0 W/m2
14:27 77.7 °F /  25.4 °C 19.0 °F /  -7.2 °C 30.20in /  1022.6hPa Calm   6.0mph /  9.7km/h 11% 0.00in /  0mm 584.0 W/m2
14:33 77.7 °F /  25.4 °C 19.0 °F /  -7.2 °C 30.20in /  1022.6hPa Calm   1.0mph /  1.6km/h 11% 0.00in /  0mm 568.0 W/m2
14:39 78.3 °F /  25.7 °C 19.4 °F /  -7 °C 30.19in /  1022.2hPa Calm   9.0mph /  14.5km/h 11% 0.00in /  0mm 554.0 W/m2
14:45 78.6 °F /  25.9 °C 19.8 °F /  -6.8 °C 30.19in /  1022.2hPa Calm   5.0mph /  8km/h 11% 0.00in /  0mm 534.0 W/m2
14:51 79.0 °F /  26.1 °C 19.9 °F /  -6.7 °C 30.19in /  1022.2hPa NNW 4.0mph /  6.4km/h 8.0mph /  12.9km/h 11% 0.00in /  0mm 515.0 W/m2
14:57 79.0 °F /  26.1 °C 19.9 °F /  -6.7 °C 30.19in /  1022.2hPa WSW 4.9mph /  7.9km/h 8.0mph /  12.9km/h 11% 0.00in /  0mm 501.0 W/m2
15:03 79.0 °F /  26.1 °C 19.9 °F /  -6.7 °C 30.19in /  1022.2hPa North 4.0mph /  6.4km/h 4.0mph /  6.4km/h 11% 0.00in /  0mm 480.0 W/m2
15:09 79.0 °F /  26.1 °C 19.9 °F /  -6.7 °C 30.19in /  1022.2hPa Calm   3.0mph /  4.8km/h 11% 0.00in /  0mm 461.0 W/m2
15:15 79.0 °F /  26.1 °C 19.9 °F /  -6.7 °C 30.19in /  1022.2hPa West 2.9mph /  4.7km/h 7.0mph /  11.3km/h 11% 0.00in /  0mm 441.0 W/m2
15:21 79.0 °F /  26.1 °C 19.9 °F /  -6.7 °C 30.19in /  1022.2hPa Calm   7.0mph /  11.3km/h 11% 0.00in /  0mm 420.0 W/m2
15:27 78.8 °F /  26 °C 19.8 °F /  -6.8 °C 30.19in /  1022.2hPa North 2.0mph /  3.2km/h 4.0mph /  6.4km/h 11% 0.00in /  0mm 401.0 W/m2
15:33 78.8 °F /  26 °C 19.8 °F /  -6.8 °C 30.19in /  1022.2hPa North 2.9mph /  4.7km/h 5.0mph /  8km/h 11% 0.00in /  0mm 381.0 W/m2
15:39 79.0 °F /  26.1 °C 19.9 °F /  -6.7 °C 30.18in /  1021.9hPa Calm   1.0mph /  1.6km/h 11% 0.00in /  0mm 364.0 W/m2
15:45 78.6 °F /  25.9 °C 19.8 °F /  -6.8 °C 30.19in /  1022.2hPa NNW 2.0mph /  3.2km/h 5.0mph /  8km/h 11% 0.00in /  0mm 343.0 W/m2
15:51 78.1 °F /  25.6 °C 19.2 °F /  -7.1 °C 30.19in /  1022.2hPa WNW 4.0mph /  6.4km/h 4.0mph /  6.4km/h 11% 0.00in /  0mm 323.0 W/m2
15:57 77.5 °F /  25.3 °C 18.9 °F /  -7.3 °C 30.19in /  1022.2hPa West 2.9mph /  4.7km/h 7.0mph /  11.3km/h 11% 0.00in /  0mm 302.0 W/m2
16:03 77.0 °F /  25 °C 18.5 °F /  -7.5 °C 30.19in /  1022.2hPa WNW 2.9mph /  4.7km/h 7.0mph /  11.3km/h 11% 0.00in /  0mm 44.0 W/m2
16:09 76.5 °F /  24.7 °C 18.0 °F /  -7.8 °C 30.19in /  1022.2hPa Calm   2.0mph /  3.2km/h 11% 0.00in /  0mm 40.0 W/m2
16:15 76.5 °F /  24.7 °C 18.0 °F /  -7.8 °C 30.19in /  1022.2hPa WSW 2.0mph /  3.2km/h 4.0mph /  6.4km/h 11% 0.00in /  0mm 39.0 W/m2
16:21 76.3 °F /  24.6 °C 19.9 °F /  -6.7 °C 30.19in /  1022.2hPa West 0.9mph /  1.4km/h 2.0mph /  3.2km/h 12% 0.00in /  0mm 37.0 W/m2
16:27 75.6 °F /  24.2 °C 17.4 °F /  -8.1 °C 30.19in /  1022.2hPa SW 2.9mph /  4.7km/h 7.0mph /  11.3km/h 11% 0.00in /  0mm 35.0 W/m2
16:33 75.0 °F /  23.9 °C 16.9 °F /  -8.4 °C 30.19in /  1022.2hPa West 4.9mph /  7.9km/h 8.0mph /  12.9km/h 11% 0.00in /  0mm 74.0 W/m2
16:39 74.7 °F /  23.7 °C 18.7 °F /  -7.4 °C 30.19in /  1022.2hPa Calm   3.0mph /  4.8km/h 12% 0.00in /  0mm 46.0 W/m2
16:45 74.5 °F /  23.6 °C 16.5 °F /  -8.6 °C 30.19in /  1022.2hPa WSW 4.0mph /  6.4km/h 6.0mph /  9.7km/h 11% 0.00in /  0mm 28.0 W/m2
16:51 74.1 °F /  23.4 °C 18.3 °F /  -7.6 °C 30.19in /  1022.2hPa Calm   5.0mph /  8km/h 12% 0.00in /  0mm 23.0 W/m2
16:57 73.8 °F /  23.2 °C 18.0 °F /  -7.8 °C 30.20in /  1022.6hPa WSW 4.0mph /  6.4km/h 6.0mph /  9.7km/h 12% 0.00in /  0mm 28.0 W/m2
17:03 73.6 °F /  23.1 °C 17.8 °F /  -7.9 °C 30.20in /  1022.6hPa WSW 2.9mph /  4.7km/h 7.0mph /  11.3km/h 12% 0.00in /  0mm 23.0 W/m2
17:09 73.2 °F /  22.9 °C 17.6 °F /  -8 °C 30.20in /  1022.6hPa WSW 2.9mph /  4.7km/h 5.0mph /  8km/h 12% 0.00in /  0mm 16.0 W/m2
17:15 72.9 °F /  22.7 °C 19.2 °F /  -7.1 °C 30.20in /  1022.6hPa West 2.0mph /  3.2km/h 3.0mph /  4.8km/h 13% 0.00in /  0mm 14.0 W/m2
17:21 72.3 °F /  22.4 °C 18.7 °F /  -7.4 °C 30.20in /  1022.6hPa WSW 2.0mph /  3.2km/h 3.0mph /  4.8km/h 13% 0.00in /  0mm 11.0 W/m2
17:27 72.0 °F /  22.2 °C 18.5 °F /  -7.5 °C 30.20in /  1022.6hPa Calm   6.0mph /  9.7km/h 13% 0.00in /  0mm 7.0 W/m2
17:33 71.4 °F /  21.9 °C 18.0 °F /  -7.8 °C 30.20in /  1022.6hPa WSW 0.9mph /  1.4km/h 3.0mph /  4.8km/h 13% 0.00in /  0mm 5.0 W/m2
17:39 71.1 °F /  21.7 °C 17.8 °F /  -7.9 °C 30.20in /  1022.6hPa SW 0.9mph /  1.4km/h 3.0mph /  4.8km/h 13% 0.00in /  0mm 0.0 W/m2
17:47 70.2 °F /  21.2 °C 18.7 °F /  -7.4 °C 30.20in /  1022.6hPa WSW 0.9mph /  1.4km/h 2.0mph /  3.2km/h 14% 0.00in /  0mm 0.0 W/m2
17:53 69.6 °F /  20.9 °C 18.3 °F /  -7.6 °C 30.20in /  1022.6hPa Calm     14% 0.00in /  0mm 0.0 W/m2
17:59 69.3 °F /  20.7 °C 19.6 °F /  -6.9 °C 30.21in /  1022.9hPa Calm     15% 0.00in /  0mm 0.0 W/m2
18:05 68.5 °F /  20.3 °C 19.0 °F /  -7.2 °C 30.20in /  1022.6hPa Calm     15% 0.00in /  0mm 0.0 W/m2
18:11 67.8 °F /  19.9 °C 19.9 °F /  -6.7 °C 30.21in /  1022.9hPa Calm     16% 0.00in /  0mm 0.0 W/m2
18:17 66.9 °F /  19.4 °C 19.2 °F /  -7.1 °C 30.21in /  1022.9hPa Calm     16% 0.00in /  0mm 0.0 W/m2
18:23 66.0 °F /  18.9 °C 19.9 °F /  -6.7 °C 30.21in /  1022.9hPa Calm   1.0mph /  1.6km/h 17% 0.00in /  0mm 0.0 W/m2
18:29 65.3 °F /  18.5 °C 19.4 °F /  -7 °C 30.21in /  1022.9hPa Calm     17% 0.00in /  0mm 0.0 W/m2
18:35 64.6 °F /  18.1 °C 20.1 °F /  -6.6 °C 30.21in /  1022.9hPa Calm     18% 0.00in /  0mm 0.0 W/m2
18:41 63.9 °F /  17.7 °C 19.6 °F /  -6.9 °C 30.21in /  1022.9hPa Calm     18% 0.00in /  0mm 0.0 W/m2
18:47 63.1 °F /  17.3 °C 18.9 °F /  -7.3 °C 30.21in /  1022.9hPa Calm     18% 0.00in /  0mm 0.0 W/m2
18:53 62.4 °F /  16.9 °C 19.6 °F /  -6.9 °C 30.22in /  1023.2hPa Calm     19% 0.00in /  0mm 0.0 W/m2
18:59 61.7 °F /  16.5 °C 19.0 °F /  -7.2 °C 30.22in /  1023.2hPa Calm     19% 0.00in /  0mm 0.0 W/m2
19:05 61.0 °F /  16.1 °C 18.5 °F /  -7.5 °C 30.22in /  1023.2hPa Calm     19% 0.00in /  0mm 0.0 W/m2
19:11 60.4 °F /  15.8 °C 19.2 °F /  -7.1 °C 30.23in /  1023.6hPa Calm     20% 0.00in /  0mm 0.0 W/m2
19:17 59.7 °F /  15.4 °C 18.5 °F /  -7.5 °C 30.23in /  1023.6hPa Calm     20% 0.00in /  0mm 0.0 W/m2
19:24 59.2 °F /  15.1 °C 19.2 °F /  -7.1 °C 30.23in /  1023.6hPa Calm     21% 0.00in /  0mm 0.0 W/m2
19:30 58.8 °F /  14.9 °C 19.0 °F /  -7.2 °C 30.24in /  1023.9hPa Calm     21% 0.00in /  0mm 0.0 W/m2
19:36 58.5 °F /  14.7 °C 18.7 °F /  -7.4 °C 30.24in /  1023.9hPa Calm     21% 0.00in /  0mm 0.0 W/m2
19:42 58.1 °F /  14.5 °C 19.4 °F /  -7 °C 30.24in /  1023.9hPa Calm     22% 0.00in /  0mm 0.0 W/m2
19:48 57.7 °F /  14.3 °C 19.2 °F /  -7.1 °C 30.24in /  1023.9hPa Calm     22% 0.00in /  0mm 0.0 W/m2
19:54 57.6 °F /  14.2 °C 19.9 °F /  -6.7 °C 30.24in /  1023.9hPa Calm     23% 0.00in /  0mm 0.0 W/m2
20:00 57.2 °F /  14 °C 20.7 °F /  -6.3 °C 30.24in /  1023.9hPa Calm     24% 0.00in /  0mm 0.0 W/m2
20:06 56.8 °F /  13.8 °C 20.5 °F /  -6.4 °C 30.24in /  1023.9hPa Calm     24% 0.00in /  0mm 0.0 W/m2
20:12 56.5 °F /  13.6 °C 20.1 °F /  -6.6 °C 30.24in /  1023.9hPa Calm     24% 0.00in /  0mm 0.0 W/m2
20:20 55.9 °F /  13.3 °C 19.6 °F /  -6.9 °C 30.24in /  1023.9hPa Calm     24% 0.00in /  0mm 0.0 W/m2
20:26 55.8 °F /  13.2 °C 19.6 °F /  -6.9 °C 30.24in /  1023.9hPa Calm     24% 0.00in /  0mm 0.0 W/m2
20:32 55.4 °F /  13 °C 20.1 °F /  -6.6 °C 30.25in /  1024.3hPa Calm     25% 0.00in /  0mm 0.0 W/m2
20:38 55.0 °F /  12.8 °C 18.0 °F /  -7.8 °C 30.25in /  1024.3hPa Calm   1.0mph /  1.6km/h 23% 0.00in /  0mm 0.0 W/m2
20:44 55.0 °F /  12.8 °C 18.9 °F /  -7.3 °C 30.25in /  1024.3hPa Calm   1.0mph /  1.6km/h 24% 0.00in /  0mm 0.0 W/m2
20:50 54.9 °F /  12.7 °C 17.8 °F /  -7.9 °C 30.24in /  1023.9hPa Calm   1.0mph /  1.6km/h 23% 0.00in /  0mm 0.0 W/m2
20:56 54.9 °F /  12.7 °C 18.7 °F /  -7.4 °C 30.24in /  1023.9hPa Calm     24% 0.00in /  0mm 0.0 W/m2
21:02 54.9 °F /  12.7 °C 18.7 °F /  -7.4 °C 30.24in /  1023.9hPa Calm     24% 0.00in /  0mm 0.0 W/m2
21:08 54.5 °F /  12.5 °C 19.4 °F /  -7 °C 30.24in /  1023.9hPa Calm     25% 0.00in /  0mm 0.0 W/m2
21:14 54.1 °F /  12.3 °C 19.0 °F /  -7.2 °C 30.24in /  1023.9hPa Calm     25% 0.00in /  0mm 0.0 W/m2
21:20 53.8 °F /  12.1 °C 18.9 °F /  -7.3 °C 30.24in /  1023.9hPa Calm   1.0mph /  1.6km/h 25% 0.00in /  0mm 0.0 W/m2
21:26 53.4 °F /  11.9 °C 18.5 °F /  -7.5 °C 30.24in /  1023.9hPa Calm     25% 0.00in /  0mm 0.0 W/m2
21:32 53.2 °F /  11.8 °C 18.3 °F /  -7.6 °C 30.24in /  1023.9hPa Calm     25% 0.00in /  0mm 0.0 W/m2
21:39 53.1 °F /  11.7 °C 18.1 °F /  -7.7 °C 30.24in /  1023.9hPa Calm   1.0mph /  1.6km/h 25% 0.00in /  0mm 0.0 W/m2
21:45 52.7 °F /  11.5 °C 18.7 °F /  -7.4 °C 30.23in /  1023.6hPa South 0.9mph /  1.4km/h 1.0mph /  1.6km/h 26% 0.00in /  0mm 0.0 W/m2
21:51 52.3 °F /  11.3 °C 18.5 °F /  -7.5 °C 30.23in /  1023.6hPa Calm     26% 0.00in /  0mm 0.0 W/m2
21:57 52.2 °F /  11.2 °C 18.3 °F /  -7.6 °C 30.23in /  1023.6hPa Calm     26% 0.00in /  0mm 0.0 W/m2
22:03 51.8 °F /  11 °C 18.0 °F /  -7.8 °C 30.23in /  1023.6hPa Calm     26% 0.00in /  0mm 0.0 W/m2
22:09 51.6 °F /  10.9 °C 18.7 °F /  -7.4 °C 30.23in /  1023.6hPa Calm     27% 0.00in /  0mm 0.0 W/m2
22:15 51.4 °F /  10.8 °C 18.5 °F /  -7.5 °C 30.24in /  1023.9hPa Calm   2.0mph /  3.2km/h 27% 0.00in /  0mm 0.0 W/m2
22:21 51.6 °F /  10.9 °C 17.8 °F /  -7.9 °C 30.24in /  1023.9hPa East 0.9mph /  1.4km/h 2.0mph /  3.2km/h 26% 0.00in /  0mm 0.0 W/m2
22:27 51.8 °F /  11 °C 18.0 °F /  -7.8 °C 30.24in /  1023.9hPa Calm   3.0mph /  4.8km/h 26% 0.00in /  0mm 0.0 W/m2
22:33 52.0 °F /  11.1 °C 18.1 °F /  -7.7 °C 30.24in /  1023.9hPa East 0.9mph /  1.4km/h 2.0mph /  3.2km/h 26% 0.00in /  0mm 0.0 W/m2
22:39 52.2 °F /  11.2 °C 18.3 °F /  -7.6 °C 30.24in /  1023.9hPa Calm   4.0mph /  6.4km/h 26% 0.00in /  0mm 0.0 W/m2
22:45 52.2 °F /  11.2 °C 18.3 °F /  -7.6 °C 30.24in /  1023.9hPa ENE 0.9mph /  1.4km/h 1.0mph /  1.6km/h 26% 0.00in /  0mm 0.0 W/m2
22:53 52.2 °F /  11.2 °C 18.3 °F /  -7.6 °C 30.24in /  1023.9hPa Calm     26% 0.00in /  0mm 0.0 W/m2
22:59 52.2 °F /  11.2 °C 18.3 °F /  -7.6 °C 30.24in /  1023.9hPa Calm     26% 0.00in /  0mm 0.0 W/m2
23:05 52.2 °F /  11.2 °C 18.3 °F /  -7.6 °C 30.23in /  1023.6hPa Calm   2.0mph /  3.2km/h 26% 0.00in /  0mm 0.0 W/m2
23:11 52.0 °F /  11.1 °C 18.1 °F /  -7.7 °C 30.23in /  1023.6hPa SE 0.9mph /  1.4km/h 2.0mph /  3.2km/h 26% 0.00in /  0mm 0.0 W/m2
23:18 52.0 °F /  11.1 °C 18.1 °F /  -7.7 °C 30.23in /  1023.6hPa Calm   1.0mph /  1.6km/h 26% 0.00in /  0mm 0.0 W/m2
23:24 51.8 °F /  11 °C 18.0 °F /  -7.8 °C 30.23in /  1023.6hPa SE 2.9mph /  4.7km/h 4.0mph /  6.4km/h 26% 0.00in /  0mm 0.0 W/m2
23:30 51.8 °F /  11 °C 18.9 °F /  -7.3 °C 30.23in /  1023.6hPa Calm   1.0mph /  1.6km/h 27% 0.00in /  0mm 0.0 W/m2
23:36 51.6 °F /  10.9 °C 18.7 °F /  -7.4 °C 30.23in /  1023.6hPa Calm   1.0mph /  1.6km/h 27% 0.00in /  0mm 0.0 W/m2
23:42 51.4 °F /  10.8 °C 18.5 °F /  -7.5 °C 30.23in /  1023.6hPa Calm   1.0mph /  1.6km/h 27% 0.00in /  0mm 0.0 W/m2
23:48 51.3 °F /  10.7 °C 18.3 °F /  -7.6 °C 30.23in /  1023.6hPa Calm     27% 0.00in /  0mm 0.0 W/m2
23:54 51.1 °F /  10.6 °C 19.0 °F /  -7.2 °C 30.22in /  1023.2hPa Calm     28% 0.00in /  0mm 0.0 W/m2
Olympia, Windhoek, Namibia
Compliments of Weather Underground - 3 mb